Flight Track Log - Related Links

Times and Time Zones

All times are in EDT time to prevent confusion due to time zone crossing. See the N34996 flight status page for this flight to view local times or setup timezone preferences in your user account.

Time Position Orientation Groundspeed Altitude Reporting Facility
EDT Latitude Longitude Course Direction KTS MPH feet Rate Location/Type
Sat 03:59:18 PM 30.3525 -95.4147 142° Southeast 63 72 200  Level Houston Center
Sat 04:00:13 PM 30.3386 -95.4019 142° Southeast 74 85 600 466 Climbing Houston Center
Sat 04:01:14 PM 30.3272 -95.4153 225° Southwest 88 101 1,100 525 Climbing Houston Center
Sat 04:01:33 PM 30.3258 -95.4269 262° West 82 94 1,300 492 Climbing Houston Center
Sat 04:02:15 PM 30.3258 -95.4447 270° West 87 100 1,600 484 Climbing Houston Center
Sat 04:02:35 PM 30.3250 -95.4536 264° West 83 96 1,800 393 Climbing Houston Center
Sat 04:03:16 PM 30.3222 -95.4764 262° West 98 113 2,000 387 Climbing Houston Center
Sat 04:03:37 PM 30.3225 -95.4836 273° West 88 101 2,200 295 Climbing Houston Center
Sat 04:04:17 PM 30.3186 -95.5061 259° West 90 104 2,300 387 Climbing Houston Center
Sat 04:04:39 PM 30.3181 -95.5114 263° West 89 102 2,600 506 Climbing Houston Center
Sat 04:05:40 PM 30.3075 -95.5364 244° Southwest 87 100 3,000 240 Climbing Houston Center
Sat 04:06:19 PM 30.2981 -95.5569 242° Southwest 96 110 3,000 97 Level Houston Center
Sat 04:06:42 PM 30.2958 -95.5631 247° West 88 101 3,100 -100 Climbing Houston Center
Sat 04:07:19 PM 30.2775 -95.5836 224° Southwest 110 127 2,900  Descending Houston Center
Sat 04:07:44 PM 30.2736 -95.5864 212° Southwest 101 116 3,100 98 Climbing Houston Center
Sat 04:08:20 PM 30.2519 -95.6033 214° Southwest 106 122 3,000  Descending Houston Center
Sat 04:08:46 PM 30.2436 -95.6117 221° Southwest 109 125 3,100  Climbing Houston Center
Sat 04:09:21 PM 30.2267 -95.6258 216° Southwest 111 128 3,000  Descending Houston Center
Sat 04:09:47 PM 30.2197 -95.6333 223° Southwest 109 125 3,100  Climbing Houston Center
Sat 04:10:49 PM 30.1931 -95.6561 216° Southwest 115 132 3,000 -63 Descending Houston Center
Sat 04:11:23 PM 30.1783 -95.6725 224° Southwest 110 127 3,000 97 Level Houston Center
Sat 04:11:51 PM 30.1694 -95.6803 217° Southwest 115 132 3,100  Climbing Houston Center
Sat 04:12:24 PM 30.1511 -95.6975 219° Southwest 118 136 3,000  Descending Houston Center
Sat 04:12:52 PM 30.1447 -95.7031 217° Southwest 115 132 3,100  Climbing Houston Center
Sat 04:13:26 PM 30.1278 -95.7194 220° Southwest 109 125 3,000  Descending Houston Center
Sat 04:13:54 PM 30.1208 -95.7244 212° Southwest 113 130 3,100  Climbing Houston Center
Sat 04:14:27 PM 30.0994 -95.7300 193° South 108 124 3,000  Descending Houston Center
Sat 04:14:56 PM 30.0853 -95.7325 189° South 110 127 3,100  Climbing Houston Center
Sat 04:15:28 PM 30.0683 -95.7361 190° South 118 136 3,000  Descending Houston Center
Sat 04:15:57 PM 30.0525 -95.7372 183° South 115 132 3,100  Climbing Houston Center
Sat 04:16:29 PM 30.0331 -95.7403 188° South 121 139 3,000  Descending Houston Center
Sat 04:16:59 PM 30.0194 -95.7400 179° South 118 136 3,100  Climbing Houston Center
Sat 04:17:30 PM 30.0000 -95.7442 191° South 111 128 3,000  Descending Houston Center
Sat 04:18:01 PM 29.9878 -95.7431 175° South 115 132 3,100  Climbing Houston Center
Sat 04:18:31 PM 29.9686 -95.7456 186° South 113 130 3,000  Descending Houston Center
Sat 04:19:02 PM 29.9567 -95.7464 183° South 114 131 3,100  Climbing Houston Center
Sat 04:19:33 PM 29.9372 -95.7492 187° South 105 121 3,000  Descending Houston Center
Sat 04:20:04 PM 29.9278 -95.7506 187° South 108 124 3,100  Climbing Houston Center
Sat 04:20:34 PM 29.9083 -95.7525 185° South 106 122 3,000  Descending Houston Center
Sat 04:21:06 PM 29.8986 -95.7542 188° South 106 122 3,100  Climbing Houston Center
Sat 04:21:35 PM 29.8792 -95.7558 184° South 102 117 3,000  Descending Houston Center
Sat 04:22:07 PM 29.8636 -95.7589 190° South 105 121 3,100  Climbing Houston Center
Sat 04:22:36 PM 29.8481 -95.7594 182° South 111 128 3,000  Descending Houston Center
Sat 04:23:09 PM 29.8325 -95.7619 188° South 110 127 3,100  Climbing Houston Center
Sat 04:23:38 PM 29.8147 -95.7633 184° South 114 131 3,000  Descending Houston Center
Sat 04:24:11 PM 29.8011 -95.7658 189° South 113 130 3,100  Climbing Houston Center
Sat 04:24:38 PM 29.7839 -95.7694 190° South 115 132 3,000  Descending Houston Center
Sat 04:25:13 PM 29.7697 -95.7714 187° South 114 131 3,100  Climbing Houston Center
Sat 04:25:40 PM 29.7528 -95.7731 185° South 112 129 3,000  Descending Houston Center
Sat 04:26:14 PM 29.7386 -95.7764 192° South 113 130 3,100  Climbing Houston Center
Sat 04:26:41 PM 29.7197 -95.7792 187° South 117 135 3,000  Descending Houston Center
Sat 04:27:16 PM 29.7067 -95.7814 188° South 115 132 3,100  Climbing Houston Center
Sat 04:27:42 PM 29.6883 -95.7806 178° South 112 129 3,000  Descending Houston Center
Sat 04:28:18 PM 29.6781 -95.7739 151° Southeast 111 128 3,100  Climbing Houston Center
Sat 04:28:44 PM 29.6617 -95.7644 153° Southeast 107 123 3,000  Descending Houston Center
Sat 04:29:20 PM 29.6458 -95.7550 153° Southeast 108 124 3,100  Climbing Houston Center
Sat 04:29:44 PM 29.6328 -95.7483 156° South 110 127 3,000  Descending Houston Center
Sat 04:30:21 PM 29.6186 -95.7403 154° Southeast 108 124 3,100  Climbing Houston Center
Sat 04:30:46 PM 29.6042 -95.7325 155° Southeast 113 130 3,000  Descending Houston Center
Sat 04:31:23 PM 29.5900 -95.7244 154° Southeast 112 129 3,100  Climbing Houston Center
Sat 04:31:47 PM 29.5775 -95.7164 151° Southeast 107 123 3,000  Descending Houston Center
Sat 04:32:25 PM 29.5636 -95.7100 158° South 108 124 3,100  Climbing Houston Center
Sat 04:32:48 PM 29.5511 -95.7028 153° Southeast 103 119 3,000  Descending Houston Center
Sat 04:33:27 PM 29.5386 -95.6964 156° South 102 117 3,100  Climbing Houston Center
Sat 04:33:49 PM 29.5247 -95.6889 155° Southeast 97 112 3,000  Descending Houston Center
Sat 04:34:28 PM 29.5136 -95.6831 155° Southeast 100 115 3,100  Climbing Houston Center
Sat 04:34:50 PM 29.5003 -95.6750 152° Southeast 103 119 3,000  Descending Houston Center
Sat 04:35:30 PM 29.4825 -95.6656 155° Southeast 103 119 3,100  Climbing Houston Center
Sat 04:35:51 PM 29.4717 -95.6592 153° Southeast 107 123 3,000  Descending Houston Center
Sat 04:36:32 PM 29.4550 -95.6506 156° South 107 123 3,100  Climbing Houston Center
Sat 04:36:52 PM 29.4433 -95.6458 161° South 110 127 3,000 -581 Descending Houston Center
Sat 04:37:34 PM 29.4267 -95.6358 152° Southeast 111 128 2,500 -885 Descending Houston Center
Sat 04:37:53 PM 29.4144 -95.6300 157° South 114 131 2,100 -387 Descending Houston Center
Sat 04:38:36 PM 29.4006 -95.6214 152° Southeast 107 123 2,100 -97 Level Houston Center
Sat 04:38:55 PM 29.3922 -95.6158 150° Southeast 96 110 2,000  Descending Houston Center
Sat 04:39:37 PM 29.3778 -95.6089 157° South 96 110 2,100  Climbing Houston Center
Sat 04:39:56 PM 29.3681 -95.6042 157° South 99 114 2,000  Descending Houston Center
Sat 04:40:39 PM 29.3531 -95.5950 152° Southeast 97 112 2,100  Climbing Houston Center
Sat 04:40:57 PM 29.3394 -95.5883 157° South 100 115 2,000  Descending Houston Center
Sat 04:41:41 PM 29.3244 -95.5742 141° Southeast 103 119 2,100 -98 Climbing Houston Center
Sat 04:41:58 PM 29.3225 -95.5642 103° East 103 119 1,900  Descending Houston Center
Sat 04:42:43 PM 29.3156 -95.5400 108° East 108 124 2,100 98 Climbing Houston Center
Sat 04:42:59 PM 29.3111 -95.5319 122° Southeast 109 125 2,000  Descending Houston Center
Sat 04:43:45 PM 29.3028 -95.5078 112° Southeast 111 128 2,100  Climbing Houston Center
Sat 04:44:00 PM 29.2997 -95.4997 114° Southeast 108 124 2,000 -98 Descending Houston Center
Sat 04:44:46 PM 29.2847 -95.4858 141° Southeast 105 121 2,000  Level Houston Center
Sat 04:45:01 PM 29.2750 -95.4811 157° South 101 116 2,000 97 Level Houston Center
Sat 04:45:48 PM 29.2600 -95.4703 148° Southeast 102 117 2,100 -97 Climbing Houston Center
Sat 04:46:03 PM 29.2506 -95.4647 153° Southeast 103 119 1,900 -97 Descending Houston Center
Sat 04:46:50 PM 29.2306 -95.4489 145° Southeast 103 119 2,000 128 Climbing Houston Center

Login

Don't have an account? Register now (free) for customized features, flight alerts, and more!